sensor_id;sensor_type;location;lat;lon;timestamp;pressure;altitude;pressure_sealevel;temperature;humidity
61014;BME280;46899;47.542;19.082;2022-10-16T00:01:15;100956.56;;;14.68;86.93
61014;BME280;46899;47.542;19.082;2022-10-16T00:04:18;100947.91;;;14.66;86.59
61014;BME280;46899;47.542;19.082;2022-10-16T00:07:20;100949.56;;;14.69;86.45
61014;BME280;46899;47.542;19.082;2022-10-16T00:10:23;100947.25;;;14.61;87.17
61014;BME280;46899;47.542;19.082;2022-10-16T00:13:25;100949.09;;;14.59;87.15
61014;BME280;46899;47.542;19.082;2022-10-16T00:16:28;100946.53;;;14.58;87.18
61014;BME280;46899;47.542;19.082;2022-10-16T00:19:31;100947.38;;;14.58;86.98
61014;BME280;46899;47.542;19.082;2022-10-16T00:22:34;100939.66;;;14.55;86.03
61014;BME280;46899;47.542;19.082;2022-10-16T00:25:36;100956.28;;;14.54;86.17
61014;BME280;46899;47.542;19.082;2022-10-16T00:28:38;100957.19;;;14.53;85.93
61014;BME280;46899;47.542;19.082;2022-10-16T00:31:41;100961.59;;;14.53;85.97
61014;BME280;46899;47.542;19.082;2022-10-16T00:34:43;100971.28;;;14.51;85.88
61014;BME280;46899;47.542;19.082;2022-10-16T00:37:46;100974.88;;;14.48;86.79
61014;BME280;46899;47.542;19.082;2022-10-16T00:40:48;100974.59;;;14.54;85.08
61014;BME280;46899;47.542;19.082;2022-10-16T00:43:55;100975.47;;;14.55;85.71
61014;BME280;46899;47.542;19.082;2022-10-16T00:46:58;100969.63;;;14.48;85.65
61014;BME280;46899;47.542;19.082;2022-10-16T00:50:11;100978.50;;;14.44;84.54
61014;BME280;46899;47.542;19.082;2022-10-16T00:53:16;100972.56;;;14.61;82.88
61014;BME280;46899;47.542;19.082;2022-10-16T00:56:19;100971.09;;;14.55;82.92
61014;BME280;46899;47.542;19.082;2022-10-16T00:59:23;100972.09;;;14.51;83.37
61014;BME280;46899;47.542;19.082;2022-10-16T01:02:26;100980.09;;;14.48;83.36
61014;BME280;46899;47.542;19.082;2022-10-16T01:05:38;100987.41;;;14.40;83.50
61014;BME280;46899;47.542;19.082;2022-10-16T01:08:49;100991.06;;;14.36;83.17
61014;BME280;46899;47.542;19.082;2022-10-16T01:15:24;100990.44;;;14.29;84.75
61014;BME280;46899;47.542;19.082;2022-10-16T01:18:32;100987.25;;;14.21;85.01
61014;BME280;46899;47.542;19.082;2022-10-16T01:21:38;100987.38;;;14.18;84.68
61014;BME280;46899;47.542;19.082;2022-10-16T01:24:46;100992.13;;;14.09;85.72
61014;BME280;46899;47.542;19.082;2022-10-16T01:27:50;100991.41;;;14.05;85.63
61014;BME280;46899;47.542;19.082;2022-10-16T01:30:54;100996.34;;;13.90;86.42
61014;BME280;46899;47.542;19.082;2022-10-16T01:34:00;101005.59;;;13.77;86.73
61014;BME280;46899;47.542;19.082;2022-10-16T01:37:09;101002.41;;;13.68;86.83
61014;BME280;46899;47.542;19.082;2022-10-16T01:40:14;100998.38;;;13.60;87.83
61014;BME280;46899;47.542;19.082;2022-10-16T01:43:20;101003.19;;;13.47;88.14
61014;BME280;46899;47.542;19.082;2022-10-16T01:46:24;101009.44;;;13.43;88.09
61014;BME280;46899;47.542;19.082;2022-10-16T01:49:30;101021.03;;;13.36;88.67
61014;BME280;46899;47.542;19.082;2022-10-16T01:52:34;101016.34;;;13.21;89.44
61014;BME280;46899;47.542;19.082;2022-10-16T01:55:41;101019.31;;;13.11;90.26
61014;BME280;46899;47.542;19.082;2022-10-16T01:58:47;101025.78;;;12.99;90.84
61014;BME280;46899;47.542;19.082;2022-10-16T02:01:52;101033.16;;;12.88;91.59
61014;BME280;46899;47.542;19.082;2022-10-16T02:04:58;101023.97;;;12.76;92.54
61014;BME280;46899;47.542;19.082;2022-10-16T02:08:03;101029.59;;;12.64;93.85
61014;BME280;46899;47.542;19.082;2022-10-16T02:11:07;101037.84;;;12.51;94.78
61014;BME280;46899;47.542;19.082;2022-10-16T02:14:09;101033.84;;;12.41;95.62
61014;BME280;46899;47.542;19.082;2022-10-16T02:17:13;101040.94;;;12.35;96.46
61014;BME280;46899;47.542;19.082;2022-10-16T02:20:16;101037.75;;;12.26;98.16
61014;BME280;46899;47.542;19.082;2022-10-16T02:24:03;101027.03;;;12.07;99.55
61014;BME280;46899;47.542;19.082;2022-10-16T02:29:49;101026.91;;;11.83;100.00
61014;BME280;46899;47.542;19.082;2022-10-16T02:32:54;101028.03;;;11.74;100.00
61014;BME280;46899;47.542;19.082;2022-10-16T02:35:58;101031.75;;;11.64;100.00
61014;BME280;46899;47.542;19.082;2022-10-16T02:39:02;101026.72;;;11.58;100.00
61014;BME280;46899;47.542;19.082;2022-10-16T02:42:10;101039.84;;;11.55;100.00
61014;BME280;46899;47.542;19.082;2022-10-16T02:45:13;101041.81;;;11.47;100.00
61014;BME280;46899;47.542;19.082;2022-10-16T02:48:15;101046.31;;;11.42;100.00
61014;BME280;46899;47.542;19.082;2022-10-16T02:51:17;101042.03;;;11.39;100.00
61014;BME280;46899;47.542;19.082;2022-10-16T02:54:20;101039.53;;;11.35;100.00
61014;BME280;46899;47.542;19.082;2022-10-16T02:57:22;101044.16;;;11.25;100.00
61014;BME280;46899;47.542;19.082;2022-10-16T03:00:25;101049.56;;;11.18;100.00
61014;BME280;46899;47.542;19.082;2022-10-16T03:03:28;101039.28;;;11.12;100.00
61014;BME280;46899;47.542;19.082;2022-10-16T03:06:30;101052.41;;;11.09;100.00
61014;BME280;46899;47.542;19.082;2022-10-16T03:09:33;101054.25;;;11.04;100.00
61014;BME280;46899;47.542;19.082;2022-10-16T03:12:35;101054.44;;;10.96;100.00
61014;BME280;46899;47.542;19.082;2022-10-16T03:15:38;101058.06;;;10.90;100.00
61014;BME280;46899;47.542;19.082;2022-10-16T03:18:40;101059.94;;;10.85;100.00
61014;BME280;46899;47.542;19.082;2022-10-16T03:21:42;101063.47;;;10.83;100.00
61014;BME280;46899;47.542;19.082;2022-10-16T03:24:45;101064.41;;;10.79;100.00
61014;BME280;46899;47.542;19.082;2022-10-16T03:27:47;101068.91;;;10.74;100.00
61014;BME280;46899;47.542;19.082;2022-10-16T03:30:50;101074.25;;;10.68;100.00
61014;BME280;46899;47.542;19.082;2022-10-16T03:33:52;101072.72;;;10.59;100.00
61014;BME280;46899;47.542;19.082;2022-10-16T03:36:55;101075.44;;;10.53;100.00
61014;BME280;46899;47.542;19.082;2022-10-16T03:39:57;101081.69;;;10.46;100.00
61014;BME280;46899;47.542;19.082;2022-10-16T03:43:00;101085.31;;;10.39;100.00
61014;BME280;46899;47.542;19.082;2022-10-16T03:46:02;101088.06;;;10.33;100.00
61014;BME280;46899;47.542;19.082;2022-10-16T03:49:05;101083.88;;;10.26;100.00
61014;BME280;46899;47.542;19.082;2022-10-16T03:52:10;101088.22;;;10.25;100.00
61014;BME280;46899;47.542;19.082;2022-10-16T03:55:13;101090.94;;;10.21;100.00
61014;BME280;46899;47.542;19.082;2022-10-16T03:58:15;101090.16;;;10.16;100.00
61014;BME280;46899;47.542;19.082;2022-10-16T04:01:18;101093.72;;;10.10;100.00
61014;BME280;46899;47.542;19.082;2022-10-16T04:04:20;101099.06;;;10.04;100.00
61014;BME280;46899;47.542;19.082;2022-10-16T04:07:23;101097.41;;;9.99;100.00
61014;BME280;46899;47.542;19.082;2022-10-16T04:10:31;101102.72;;;9.96;100.00
61014;BME280;46899;47.542;19.082;2022-10-16T04:13:34;101100.97;;;9.95;100.00
61014;BME280;46899;47.542;19.082;2022-10-16T04:16:37;101105.38;;;9.93;100.00
61014;BME280;46899;47.542;19.082;2022-10-16T04:19:39;101100.16;;;9.93;100.00
61014;BME280;46899;47.542;19.082;2022-10-16T04:22:41;101107.19;;;9.88;100.00
61014;BME280;46899;47.542;19.082;2022-10-16T04:25:44;101108.09;;;9.87;100.00
61014;BME280;46899;47.542;19.082;2022-10-16T04:28:46;101104.66;;;9.85;100.00
61014;BME280;46899;47.542;19.082;2022-10-16T04:31:49;101102.91;;;9.87;100.00
61014;BME280;46899;47.542;19.082;2022-10-16T04:34:51;101100.41;;;9.81;100.00
61014;BME280;46899;47.542;19.082;2022-10-16T04:37:53;101112.53;;;9.82;100.00
61014;BME280;46899;47.542;19.082;2022-10-16T04:40:56;101116.06;;;9.78;100.00
61014;BME280;46899;47.542;19.082;2022-10-16T04:43:58;101118.75;;;9.73;100.00
61014;BME280;46899;47.542;19.082;2022-10-16T04:47:01;101129.22;;;9.70;100.00
61014;BME280;46899;47.542;19.082;2022-10-16T04:50:03;101127.44;;;9.72;100.00
61014;BME280;46899;47.542;19.082;2022-10-16T04:53:06;101123.19;;;9.67;100.00
61014;BME280;46899;47.542;19.082;2022-10-16T04:56:09;101124.09;;;9.66;100.00
61014;BME280;46899;47.542;19.082;2022-10-16T04:59:12;101133.72;;;9.60;100.00
61014;BME280;46899;47.542;19.082;2022-10-16T05:02:14;101130.34;;;9.55;100.00
61014;BME280;46899;47.542;19.082;2022-10-16T05:05:17;101137.28;;;9.55;100.00
61014;BME280;46899;47.542;19.082;2022-10-16T05:08:21;101138.19;;;9.52;100.00
61014;BME280;46899;47.542;19.082;2022-10-16T05:11:24;101139.00;;;9.54;100.00
61014;BME280;46899;47.542;19.082;2022-10-16T05:14:26;101134.72;;;9.53;100.00
61014;BME280;46899;47.542;19.082;2022-10-16T05:17:28;101144.28;;;9.51;100.00
61014;BME280;46899;47.542;19.082;2022-10-16T05:20:31;101142.56;;;9.50;100.00
61014;BME280;46899;47.542;19.082;2022-10-16T05:23:33;101134.69;;;9.55;100.00
61014;BME280;46899;47.542;19.082;2022-10-16T05:26:35;101145.94;;;9.54;100.00
61014;BME280;46899;47.542;19.082;2022-10-16T05:29:38;101146.81;;;9.56;100.00
61014;BME280;46899;47.542;19.082;2022-10-16T05:32:40;101156.31;;;9.55;100.00
61014;BME280;46899;47.542;19.082;2022-10-16T05:35:43;101164.91;;;9.59;100.00
61014;BME280;46899;47.542;19.082;2022-10-16T05:38:45;101165.72;;;9.61;100.00
61014;BME280;46899;47.542;19.082;2022-10-16T05:41:49;101165.72;;;9.61;100.00
61014;BME280;46899;47.542;19.082;2022-10-16T05:44:51;101169.16;;;9.64;100.00
61014;BME280;46899;47.542;19.082;2022-10-16T05:47:54;101166.44;;;9.71;100.00
61014;BME280;46899;47.542;19.082;2022-10-16T05:51:00;101174.19;;;9.74;100.00
61014;BME280;46899;47.542;19.082;2022-10-16T05:54:03;101166.19;;;9.83;100.00
61014;BME280;46899;47.542;19.082;2022-10-16T05:57:05;101169.53;;;9.91;100.00
61014;BME280;46899;47.542;19.082;2022-10-16T06:00:08;101164.00;;;10.07;100.00
61014;BME280;46899;47.542;19.082;2022-10-16T06:03:13;101171.59;;;10.18;100.00
61014;BME280;46899;47.542;19.082;2022-10-16T06:06:17;101180.06;;;10.27;100.00
61014;BME280;46899;47.542;19.082;2022-10-16T06:09:19;101191.09;;;10.40;100.00
61014;BME280;46899;47.542;19.082;2022-10-16T06:12:22;101198.75;;;10.48;100.00
61014;BME280;46899;47.542;19.082;2022-10-16T06:15:24;101195.91;;;10.58;100.00
61014;BME280;46899;47.542;19.082;2022-10-16T06:18:29;101192.06;;;10.76;100.00
61014;BME280;46899;47.542;19.082;2022-10-16T06:21:32;101196.78;;;10.95;100.00
61014;BME280;46899;47.542;19.082;2022-10-16T06:24:34;101198.06;;;11.16;100.00
61014;BME280;46899;47.542;19.082;2022-10-16T06:27:39;101197.50;;;11.39;100.00
61014;BME280;46899;47.542;19.082;2022-10-16T06:30:42;101194.66;;;11.48;100.00
61014;BME280;46899;47.542;19.082;2022-10-16T06:33:50;101205.66;;;11.59;99.70
61014;BME280;46899;47.542;19.082;2022-10-16T06:36:53;101214.03;;;11.73;99.86
61014;BME280;46899;47.542;19.082;2022-10-16T06:39:55;101231.00;;;11.89;98.65
61014;BME280;46899;47.542;19.082;2022-10-16T06:42:58;101223.63;;;12.05;98.52
61014;BME280;46899;47.542;19.082;2022-10-16T06:46:00;101230.84;;;12.26;96.63
61014;BME280;46899;47.542;19.082;2022-10-16T06:49:04;101241.72;;;12.42;95.88
61014;BME280;46899;47.542;19.082;2022-10-16T06:52:06;101242.16;;;12.57;94.21
61014;BME280;46899;47.542;19.082;2022-10-16T06:55:08;101242.63;;;12.70;90.98
61014;BME280;46899;47.542;19.082;2022-10-16T06:58:11;101235.94;;;12.90;89.17
61014;BME280;46899;47.542;19.082;2022-10-16T07:01:14;101244.19;;;13.06;88.31
61014;BME280;46899;47.542;19.082;2022-10-16T07:04:17;101242.12;;;13.16;87.88
61014;BME280;46899;47.542;19.082;2022-10-16T07:07:19;101254.78;;;13.29;86.92
61014;BME280;46899;47.542;19.082;2022-10-16T07:10:22;101259.69;;;13.38;85.41
61014;BME280;46899;47.542;19.082;2022-10-16T07:13:26;101262.16;;;13.43;83.31
61014;BME280;46899;47.542;19.082;2022-10-16T07:16:29;101264.16;;;13.62;82.44
61014;BME280;46899;47.542;19.082;2022-10-16T07:19:32;101272.78;;;13.64;81.32
61014;BME280;46899;47.542;19.082;2022-10-16T07:22:35;101279.78;;;13.64;81.53
61014;BME280;46899;47.542;19.082;2022-10-16T07:25:38;101275.62;;;13.85;80.27
61014;BME280;46899;47.542;19.082;2022-10-16T07:28:41;101279.03;;;13.87;79.64
61014;BME280;46899;47.542;19.082;2022-10-16T07:31:44;101281.91;;;14.04;78.26
61014;BME280;46899;47.542;19.082;2022-10-16T07:34:47;101294.87;;;14.08;77.22
61014;BME280;46899;47.542;19.082;2022-10-16T07:37:49;101307.25;;;14.28;76.62
61014;BME280;46899;47.542;19.082;2022-10-16T07:41:26;101294.37;;;14.22;75.69
61014;BME280;46899;47.542;19.082;2022-10-16T07:44:21;101300.03;;;14.36;75.86
61014;BME280;46899;47.542;19.082;2022-10-16T07:47:23;101305.19;;;14.37;75.14
61014;BME280;46899;47.542;19.082;2022-10-16T07:50:27;101311.03;;;14.46;75.75
61014;BME280;46899;47.542;19.082;2022-10-16T07:53:29;101317.63;;;14.56;73.46
61014;BME280;46899;47.542;19.082;2022-10-16T07:56:32;101304.37;;;14.60;75.15
61014;BME280;46899;47.542;19.082;2022-10-16T07:59:34;101312.13;;;14.63;74.15
61014;BME280;46899;47.542;19.082;2022-10-16T08:02:37;101304.25;;;14.63;72.98
61014;BME280;46899;47.542;19.082;2022-10-16T08:05:40;101304.78;;;14.73;73.36
61014;BME280;46899;47.542;19.082;2022-10-16T08:08:42;101312.88;;;14.90;73.48
61014;BME280;46899;47.542;19.082;2022-10-16T08:11:44;101311.47;;;15.04;73.57
61014;BME280;46899;47.542;19.082;2022-10-16T08:14:47;101312.00;;;15.13;72.89
61014;BME280;46899;47.542;19.082;2022-10-16T08:17:59;101317.00;;;15.42;71.44
61014;BME280;46899;47.542;19.082;2022-10-16T08:21:02;101328.75;;;15.32;70.38
61014;BME280;46899;47.542;19.082;2022-10-16T08:24:05;101338.44;;;15.30;70.86
61014;BME280;46899;47.542;19.082;2022-10-16T08:27:07;101334.06;;;15.30;72.23
61014;BME280;46899;47.542;19.082;2022-10-16T08:30:11;101339.81;;;15.40;71.43
61014;BME280;46899;47.542;19.082;2022-10-16T08:33:13;101334.59;;;15.61;71.21
61014;BME280;46899;47.542;19.082;2022-10-16T08:36:16;101333.78;;;15.81;70.17
61014;BME280;46899;47.542;19.082;2022-10-16T08:39:19;101347.47;;;15.67;69.74
61014;BME280;46899;47.542;19.082;2022-10-16T08:42:25;101352.16;;;15.81;69.48
61014;BME280;46899;47.542;19.082;2022-10-16T08:48:58;101343.50;;;15.79;68.94
61014;BME280;46899;47.542;19.082;2022-10-16T08:52:00;101343.00;;;15.91;68.86
61014;BME280;46899;47.542;19.082;2022-10-16T08:55:03;101339.44;;;15.92;68.71
61014;BME280;46899;47.542;19.082;2022-10-16T08:58:10;101345.34;;;15.97;68.62
61014;BME280;46899;47.542;19.082;2022-10-16T09:01:15;101344.69;;;15.92;67.27
61014;BME280;46899;47.542;19.082;2022-10-16T09:07:32;101352.84;;;16.06;67.43
61014;BME280;46899;47.542;19.082;2022-10-16T09:16:59;101365.50;;;16.38;66.55
61014;BME280;46899;47.542;19.082;2022-10-16T09:20:09;101361.69;;;16.46;65.88
61014;BME280;46899;47.542;19.082;2022-10-16T09:23:32;101350.53;;;16.61;66.46
61014;BME280;46899;47.542;19.082;2022-10-16T09:26:36;101353.53;;;16.53;67.95
61014;BME280;46899;47.542;19.082;2022-10-16T09:29:39;101349.00;;;16.75;64.89
61014;BME280;46899;47.542;19.082;2022-10-16T09:32:43;101343.88;;;16.72;66.00
61014;BME280;46899;47.542;19.082;2022-10-16T09:35:50;101348.75;;;16.81;65.44
61014;BME280;46899;47.542;19.082;2022-10-16T09:39:04;101353.72;;;16.87;65.70
61014;BME280;46899;47.542;19.082;2022-10-16T09:42:06;101348.63;;;17.03;65.11
61014;BME280;46899;47.542;19.082;2022-10-16T09:45:19;101347.56;;;17.26;63.89
61014;BME280;46899;47.542;19.082;2022-10-16T09:48:22;101354.03;;;17.37;63.54
61014;BME280;46899;47.542;19.082;2022-10-16T09:54:29;101355.25;;;17.30;62.82
61014;BME280;46899;47.542;19.082;2022-10-16T09:57:31;101356.16;;;17.29;64.02
61014;BME280;46899;47.542;19.082;2022-10-16T10:00:34;101364.12;;;17.46;62.10
61014;BME280;46899;47.542;19.082;2022-10-16T10:03:37;101366.69;;;17.48;62.24
61014;BME280;46899;47.542;19.082;2022-10-16T10:06:43;101363.78;;;17.72;60.74
61014;BME280;46899;47.542;19.082;2022-10-16T10:09:46;101365.47;;;17.73;60.92
61014;BME280;46899;47.542;19.082;2022-10-16T10:12:49;101363.41;;;17.80;60.70
61014;BME280;46899;47.542;19.082;2022-10-16T10:15:51;101358.97;;;17.81;60.48
61014;BME280;46899;47.542;19.082;2022-10-16T10:18:58;101347.56;;;17.99;60.76
61014;BME280;46899;47.542;19.082;2022-10-16T10:22:00;101341.13;;;18.04;59.63
61014;BME280;46899;47.542;19.082;2022-10-16T10:28:13;101340.19;;;18.05;59.82
61014;BME280;46899;47.542;19.082;2022-10-16T10:31:28;101332.69;;;18.15;60.08
61014;BME280;46899;47.542;19.082;2022-10-16T10:37:41;101347.56;;;18.33;58.68
61014;BME280;46899;47.542;19.082;2022-10-16T10:48:03;101333.94;;;18.59;58.39
61014;BME280;46899;47.542;19.082;2022-10-16T10:51:12;101337.56;;;18.89;58.43
61014;BME280;46899;47.542;19.082;2022-10-16T11:07:32;101345.72;;;18.85;56.69
61014;BME280;46899;47.542;19.082;2022-10-16T11:10:47;101339.56;;;19.01;56.87
61014;BME280;46899;47.542;19.082;2022-10-16T11:13:55;101333.25;;;19.04;56.27
61014;BME280;46899;47.542;19.082;2022-10-16T11:23:08;101324.00;;;19.28;55.40
61014;BME280;46899;47.542;19.082;2022-10-16T11:26:14;101318.75;;;19.44;55.66
61014;BME280;46899;47.542;19.082;2022-10-16T11:29:19;101317.72;;;19.46;54.59
61014;BME280;46899;47.542;19.082;2022-10-16T11:32:27;101304.19;;;19.52;56.52
61014;BME280;46899;47.542;19.082;2022-10-16T11:35:39;101304.44;;;19.63;55.13
61014;BME280;46899;47.542;19.082;2022-10-16T11:42:19;101302.19;;;19.71;54.49
61014;BME280;46899;47.542;19.082;2022-10-16T11:45:26;101298.66;;;19.87;54.27
61014;BME280;46899;47.542;19.082;2022-10-16T11:48:32;101299.91;;;19.95;53.04
61014;BME280;46899;47.542;19.082;2022-10-16T11:51:39;101305.88;;;19.99;53.41
61014;BME280;46899;47.542;19.082;2022-10-16T11:54:53;101303.81;;;20.04;53.38
61014;BME280;46899;47.542;19.082;2022-10-16T11:58:00;101304.13;;;20.13;52.11
61014;BME280;46899;47.542;19.082;2022-10-16T12:07:24;101296.19;;;20.43;51.78
61014;BME280;46899;47.542;19.082;2022-10-16T12:10:29;101288.38;;;20.70;51.02
61014;BME280;46899;47.542;19.082;2022-10-16T12:13:43;101292.81;;;20.69;49.80
61014;BME280;46899;47.542;19.082;2022-10-16T12:20:12;101287.41;;;20.71;50.19
61014;BME280;46899;47.542;19.082;2022-10-16T12:23:21;101297.03;;;20.86;50.56
61014;BME280;46899;47.542;19.082;2022-10-16T12:26:28;101284.75;;;20.71;50.13
61014;BME280;46899;47.542;19.082;2022-10-16T12:32:35;101290.63;;;20.62;51.75
61014;BME280;46899;47.542;19.082;2022-10-16T12:35:54;101279.19;;;20.75;51.55
61014;BME280;46899;47.542;19.082;2022-10-16T12:38:57;101281.75;;;20.63;51.21
61014;BME280;46899;47.542;19.082;2022-10-16T12:42:00;101276.06;;;20.69;51.14
61014;BME280;46899;47.542;19.082;2022-10-16T12:45:13;101276.34;;;20.50;50.68
61014;BME280;46899;47.542;19.082;2022-10-16T12:48:25;101274.94;;;20.44;50.95
61014;BME280;46899;47.542;19.082;2022-10-16T12:51:48;101283.91;;;20.42;51.13
61014;BME280;46899;47.542;19.082;2022-10-16T12:54:50;101280.22;;;20.59;51.88
61014;BME280;46899;47.542;19.082;2022-10-16T13:01:26;101282.13;;;20.57;50.79
61014;BME280;46899;47.542;19.082;2022-10-16T13:10:58;101299.50;;;20.47;51.54
61014;BME280;46899;47.542;19.082;2022-10-16T13:17:16;101290.44;;;20.36;49.88
61014;BME280;46899;47.542;19.082;2022-10-16T13:20:47;101290.44;;;20.36;50.45
61014;BME280;46899;47.542;19.082;2022-10-16T13:23:59;101288.53;;;20.38;50.69
61014;BME280;46899;47.542;19.082;2022-10-16T13:27:10;101294.69;;;20.39;51.49
61014;BME280;46899;47.542;19.082;2022-10-16T13:30:23;101296.94;;;20.45;50.93
61014;BME280;46899;47.542;19.082;2022-10-16T13:33:32;101296.88;;;20.47;50.65
61014;BME280;46899;47.542;19.082;2022-10-16T13:36:42;101305.53;;;20.34;50.74
61014;BME280;46899;47.542;19.082;2022-10-16T13:39:45;101296.44;;;20.24;50.47
61014;BME280;46899;47.542;19.082;2022-10-16T13:42:49;101291.06;;;20.26;51.01
61014;BME280;46899;47.542;19.082;2022-10-16T13:45:52;101292.88;;;20.25;50.44
61014;BME280;46899;47.542;19.082;2022-10-16T13:48:56;101302.88;;;20.34;50.67
61014;BME280;46899;47.542;19.082;2022-10-16T13:51:59;101291.72;;;20.29;50.81
61014;BME280;46899;47.542;19.082;2022-10-16T13:55:02;101300.53;;;20.30;50.96
61014;BME280;46899;47.542;19.082;2022-10-16T13:58:08;101296.59;;;20.21;51.33
61014;BME280;46899;47.542;19.082;2022-10-16T14:01:20;101302.66;;;20.23;51.23
61014;BME280;46899;47.542;19.082;2022-10-16T14:04:31;101302.91;;;20.19;51.46
61014;BME280;46899;47.542;19.082;2022-10-16T14:07:34;101308.41;;;20.16;51.98
61014;BME280;46899;47.542;19.082;2022-10-16T14:10:37;101299.22;;;20.21;51.48
61014;BME280;46899;47.542;19.082;2022-10-16T14:13:43;101299.41;;;20.04;50.27
61014;BME280;46899;47.542;19.082;2022-10-16T14:16:46;101294.94;;;20.05;50.66
61014;BME280;46899;47.542;19.082;2022-10-16T14:19:49;101300.69;;;19.97;50.82
61014;BME280;46899;47.542;19.082;2022-10-16T14:23:02;101299.62;;;20.00;50.69
61014;BME280;46899;47.542;19.082;2022-10-16T14:26:05;101298.81;;;19.99;52.04
61014;BME280;46899;47.542;19.082;2022-10-16T14:29:14;101296.50;;;19.93;50.51
61014;BME280;46899;47.542;19.082;2022-10-16T14:32:22;101295.41;;;19.97;50.22
61014;BME280;46899;47.542;19.082;2022-10-16T14:35:26;101294.59;;;19.81;51.06
61014;BME280;46899;47.542;19.082;2022-10-16T14:38:29;101306.19;;;19.78;50.88
61014;BME280;46899;47.542;19.082;2022-10-16T14:41:33;101304.56;;;19.76;51.16
61014;BME280;46899;47.542;19.082;2022-10-16T14:44:38;101306.56;;;19.57;52.15
61014;BME280;46899;47.542;19.082;2022-10-16T14:47:47;101310.84;;;19.44;52.37
61014;BME280;46899;47.542;19.082;2022-10-16T14:50:50;101315.94;;;19.47;52.21
61014;BME280;46899;47.542;19.082;2022-10-16T14:53:52;101313.34;;;19.30;53.04
61014;BME280;46899;47.542;19.082;2022-10-16T14:57:01;101311.22;;;19.21;53.67
61014;BME280;46899;47.542;19.082;2022-10-16T15:00:09;101308.34;;;19.09;54.57
61014;BME280;46899;47.542;19.082;2022-10-16T15:03:15;101304.03;;;18.91;57.37
61014;BME280;46899;47.542;19.082;2022-10-16T15:06:18;101307.00;;;18.70;56.91
61014;BME280;46899;47.542;19.082;2022-10-16T15:09:20;101305.16;;;18.55;58.94
61014;BME280;46899;47.542;19.082;2022-10-16T15:12:22;101311.37;;;18.36;59.48
61014;BME280;46899;47.542;19.082;2022-10-16T15:18:27;101316.50;;;18.22;59.31
61014;BME280;46899;47.542;19.082;2022-10-16T15:21:31;101321.28;;;18.14;60.07
61014;BME280;46899;47.542;19.082;2022-10-16T15:24:33;101334.16;;;18.03;60.30
61014;BME280;46899;47.542;19.082;2022-10-16T15:27:36;101325.88;;;17.94;61.68
61014;BME280;46899;47.542;19.082;2022-10-16T15:30:42;101328.00;;;17.68;63.82
61014;BME280;46899;47.542;19.082;2022-10-16T15:33:49;101330.44;;;17.54;64.33
61014;BME280;46899;47.542;19.082;2022-10-16T15:36:55;101328.41;;;17.41;65.14
61014;BME280;46899;47.542;19.082;2022-10-16T15:39:59;101329.38;;;17.21;65.91
61014;BME280;46899;47.542;19.082;2022-10-16T15:43:02;101329.31;;;17.04;66.61
61014;BME280;46899;47.542;19.082;2022-10-16T15:46:06;101332.78;;;16.86;68.75
61014;BME280;46899;47.542;19.082;2022-10-16T15:49:10;101335.94;;;16.74;68.79
61014;BME280;46899;47.542;19.082;2022-10-16T15:52:13;101337.25;;;16.64;69.25
61014;BME280;46899;47.542;19.082;2022-10-16T15:55:16;101339.56;;;16.51;70.44
61014;BME280;46899;47.542;19.082;2022-10-16T15:58:19;101341.78;;;16.40;70.86
61014;BME280;46899;47.542;19.082;2022-10-16T16:01:22;101344.88;;;16.29;72.86
61014;BME280;46899;47.542;19.082;2022-10-16T16:04:25;101350.69;;;16.16;73.02
61014;BME280;46899;47.542;19.082;2022-10-16T16:07:44;101360.91;;;16.02;74.43
61014;BME280;46899;47.542;19.082;2022-10-16T16:11:00;101363.06;;;15.92;74.74
61014;BME280;46899;47.542;19.082;2022-10-16T16:14:02;101366.06;;;15.83;75.77
61014;BME280;46899;47.542;19.082;2022-10-16T16:17:04;101377.72;;;15.76;75.98
61014;BME280;46899;47.542;19.082;2022-10-16T16:20:07;101387.78;;;15.65;76.02
61014;BME280;46899;47.542;19.082;2022-10-16T16:23:10;101383.78;;;15.56;77.03
61014;BME280;46899;47.542;19.082;2022-10-16T16:26:21;101382.41;;;15.46;77.80
61014;BME280;46899;47.542;19.082;2022-10-16T16:29:28;101395.09;;;15.34;79.08
61014;BME280;46899;47.542;19.082;2022-10-16T16:32:30;101399.72;;;15.27;81.00
61014;BME280;46899;47.542;19.082;2022-10-16T16:35:33;101391.06;;;15.25;81.50
61014;BME280;46899;47.542;19.082;2022-10-16T16:38:38;101409.00;;;15.13;82.17
61014;BME280;46899;47.542;19.082;2022-10-16T16:41:40;101413.00;;;14.99;83.01
61014;BME280;46899;47.542;19.082;2022-10-16T16:44:43;101416.75;;;14.92;83.81
61014;BME280;46899;47.542;19.082;2022-10-16T16:47:46;101419.63;;;14.85;84.30
61014;BME280;46899;47.542;19.082;2022-10-16T16:50:48;101422.50;;;14.77;84.73
61014;BME280;46899;47.542;19.082;2022-10-16T16:53:51;101421.94;;;14.69;86.20
61014;BME280;46899;47.542;19.082;2022-10-16T16:56:54;101419.63;;;14.60;86.45
61014;BME280;46899;47.542;19.082;2022-10-16T16:59:56;101415.50;;;14.53;87.23
61014;BME280;46899;47.542;19.082;2022-10-16T17:02:59;101423.56;;;14.47;88.08
61014;BME280;46899;47.542;19.082;2022-10-16T17:06:03;101427.16;;;14.45;89.14
61014;BME280;46899;47.542;19.082;2022-10-16T17:09:06;101441.34;;;14.37;89.60
61014;BME280;46899;47.542;19.082;2022-10-16T17:12:09;101445.12;;;14.29;91.02
61014;BME280;46899;47.542;19.082;2022-10-16T17:15:11;101447.16;;;14.19;92.03
61014;BME280;46899;47.542;19.082;2022-10-16T17:18:14;101457.88;;;14.12;91.24